sensor_id;sensor_type;location;lat;lon;timestamp;temperature;humidity
45313;SHT31;68267;51.540;5.854;2023-06-19T00:09:37;22.8;61.3
45313;SHT31;68267;51.540;5.854;2023-06-19T00:22:57;22.8;61.0
45313;SHT31;68267;51.540;5.854;2023-06-19T00:36:17;22.8;60.1
45313;SHT31;68267;51.540;5.854;2023-06-19T00:49:36;22.6;60.1
45313;SHT31;68267;51.540;5.854;2023-06-19T01:02:56;22.6;60.4
45313;SHT31;68267;51.540;5.854;2023-06-19T01:16:16;22.5;60.6
45313;SHT31;68267;51.540;5.854;2023-06-19T01:29:35;22.3;61.2
45313;SHT31;68267;51.540;5.854;2023-06-19T01:42:55;21.9;61.7
45313;SHT31;68267;51.540;5.854;2023-06-19T01:56:15;21.5;65.2
45313;SHT31;68267;51.540;5.854;2023-06-19T02:09:34;20.8;68.4
45313;SHT31;68267;51.540;5.854;2023-06-19T02:22:54;20.3;70.3
45313;SHT31;68267;51.540;5.854;2023-06-19T02:36:14;20.0;72.2
45313;SHT31;68267;51.540;5.854;2023-06-19T02:49:33;19.7;74.9
45313;SHT31;68267;51.540;5.854;2023-06-19T03:02:53;19.7;75.1
45313;SHT31;68267;51.540;5.854;2023-06-19T03:16:13;19.6;75.6
45313;SHT31;68267;51.540;5.854;2023-06-19T03:29:33;19.4;76.4
45313;SHT31;68267;51.540;5.854;2023-06-19T03:42:53;19.1;77.7
45313;SHT31;68267;51.540;5.854;2023-06-19T03:56:13;19.1;78.6
45313;SHT31;68267;51.540;5.854;2023-06-19T04:09:32;19.1;78.9
45313;SHT31;68267;51.540;5.854;2023-06-19T04:22:52;19.0;79.9
45313;SHT31;68267;51.540;5.854;2023-06-19T04:36:11;19.3;79.9
45313;SHT31;68267;51.540;5.854;2023-06-19T04:49:31;19.4;79.9
45313;SHT31;68267;51.540;5.854;2023-06-19T05:02:51;19.4;79.9
45313;SHT31;68267;51.540;5.854;2023-06-19T05:16:11;19.5;80.2
45313;SHT31;68267;51.540;5.854;2023-06-19T05:29:30;19.5;80.5
45313;SHT31;68267;51.540;5.854;2023-06-19T05:42:50;19.7;79.8
45313;SHT31;68267;51.540;5.854;2023-06-19T05:56:10;19.8;79.9
45313;SHT31;68267;51.540;5.854;2023-06-19T06:09:30;20.0;78.8
45313;SHT31;68267;51.540;5.854;2023-06-19T06:22:50;20.1;78.5
45313;SHT31;68267;51.540;5.854;2023-06-19T06:36:10;20.0;78.5
45313;SHT31;68267;51.540;5.854;2023-06-19T06:49:29;20.0;79.2
45313;SHT31;68267;51.540;5.854;2023-06-19T07:02:49;20.5;76.2
45313;SHT31;68267;51.540;5.854;2023-06-19T07:16:09;20.8;74.1
45313;SHT31;68267;51.540;5.854;2023-06-19T07:29:28;21.4;71.2
45313;SHT31;68267;51.540;5.854;2023-06-19T07:42:48;21.3;69.7
45313;SHT31;68267;51.540;5.854;2023-06-19T07:56:07;21.4;67.9
45313;SHT31;68267;51.540;5.854;2023-06-19T08:09:27;21.7;67.6
45313;SHT31;68267;51.540;5.854;2023-06-19T08:22:47;22.0;66.7
45313;SHT31;68267;51.540;5.854;2023-06-19T08:36:06;22.3;64.4
45313;SHT31;68267;51.540;5.854;2023-06-19T08:49:26;22.3;64.0
45313;SHT31;68267;51.540;5.854;2023-06-19T09:02:46;22.6;65.4
45313;SHT31;68267;51.540;5.854;2023-06-19T09:16:05;22.9;62.6
45313;SHT31;68267;51.540;5.854;2023-06-19T09:29:25;22.9;62.0
45313;SHT31;68267;51.540;5.854;2023-06-19T09:42:44;23.0;60.6
45313;SHT31;68267;51.540;5.854;2023-06-19T09:56:04;23.4;60.6
45313;SHT31;68267;51.540;5.854;2023-06-19T10:09:24;23.4;61.0
45313;SHT31;68267;51.540;5.854;2023-06-19T10:22:43;23.8;56.7
45313;SHT31;68267;51.540;5.854;2023-06-19T10:36:03;24.3;55.5
45313;SHT31;68267;51.540;5.854;2023-06-19T10:49:23;24.1;58.3
45313;SHT31;68267;51.540;5.854;2023-06-19T11:02:43;24.5;58.6
45313;SHT31;68267;51.540;5.854;2023-06-19T11:16:03;24.8;53.1
45313;SHT31;68267;51.540;5.854;2023-06-19T11:29:23;25.2;48.6
45313;SHT31;68267;51.540;5.854;2023-06-19T11:42:42;25.9;55.1
45313;SHT31;68267;51.540;5.854;2023-06-19T11:56:02;25.6;46.4
45313;SHT31;68267;51.540;5.854;2023-06-19T12:09:22;25.4;48.5
45313;SHT31;68267;51.540;5.854;2023-06-19T12:22:41;25.0;52.8
45313;SHT31;68267;51.540;5.854;2023-06-19T12:36:01;25.0;47.6
45313;SHT31;68267;51.540;5.854;2023-06-19T12:49:21;24.6;48.5
45313;SHT31;68267;51.540;5.854;2023-06-19T13:02:41;24.7;52.9
45313;SHT31;68267;51.540;5.854;2023-06-19T13:16:00;24.0;59.5
45313;SHT31;68267;51.540;5.854;2023-06-19T13:29:20;23.9;57.9
45313;SHT31;68267;51.540;5.854;2023-06-19T13:42:39;23.7;50.6
45313;SHT31;68267;51.540;5.854;2023-06-19T13:55:59;23.4;50.6
45313;SHT31;68267;51.540;5.854;2023-06-19T14:09:19;25.3;44.2
45313;SHT31;68267;51.540;5.854;2023-06-19T14:22:39;24.7;49.4
45313;SHT31;68267;51.540;5.854;2023-06-19T14:35:59;27.1;46.7
45313;SHT31;68267;51.540;5.854;2023-06-19T14:49:18;27.4;39.5
45313;SHT31;68267;51.540;5.854;2023-06-19T15:02:38;27.9;39.6
45313;SHT31;68267;51.540;5.854;2023-06-19T15:15:58;28.9;37.1
45313;SHT31;68267;51.540;5.854;2023-06-19T15:29:18;28.4;36.8
45313;SHT31;68267;51.540;5.854;2023-06-19T15:42:38;28.2;40.5
45313;SHT31;68267;51.540;5.854;2023-06-19T15:55:57;28.3;39.5
45313;SHT31;68267;51.540;5.854;2023-06-19T16:09:17;29.8;35.9
45313;SHT31;68267;51.540;5.854;2023-06-19T16:22:37;29.3;36.8
45313;SHT31;68267;51.540;5.854;2023-06-19T16:35:57;29.3;36.0
45313;SHT31;68267;51.540;5.854;2023-06-19T16:49:16;28.6;36.1
45313;SHT31;68267;51.540;5.854;2023-06-19T17:02:36;28.9;36.2
45313;SHT31;68267;51.540;5.854;2023-06-19T17:15:56;29.3;37.0
45313;SHT31;68267;51.540;5.854;2023-06-19T17:29:16;30.2;36.9
45313;SHT31;68267;51.540;5.854;2023-06-19T17:42:36;30.3;34.3
45313;SHT31;68267;51.540;5.854;2023-06-19T17:55:55;30.3;34.8
45313;SHT31;68267;51.540;5.854;2023-06-19T18:09:15;29.5;37.2
45313;SHT31;68267;51.540;5.854;2023-06-19T18:22:35;28.8;41.0
45313;SHT31;68267;51.540;5.854;2023-06-19T18:35:55;28.5;38.7
45313;SHT31;68267;51.540;5.854;2023-06-19T18:49:14;27.7;40.4
45313;SHT31;68267;51.540;5.854;2023-06-19T19:02:34;27.1;41.5
45313;SHT31;68267;51.540;5.854;2023-06-19T19:15:54;26.2;48.1
45313;SHT31;68267;51.540;5.854;2023-06-19T19:29:13;25.5;52.5
45313;SHT31;68267;51.540;5.854;2023-06-19T19:42:33;24.8;53.6
45313;SHT31;68267;51.540;5.854;2023-06-19T19:55:53;24.3;56.7
45313;SHT31;68267;51.540;5.854;2023-06-19T20:09:13;23.7;59.6
45313;SHT31;68267;51.540;5.854;2023-06-19T20:22:32;23.4;59.8
45313;SHT31;68267;51.540;5.854;2023-06-19T20:35:52;22.9;62.5
45313;SHT31;68267;51.540;5.854;2023-06-19T20:49:12;22.5;66.7
45313;SHT31;68267;51.540;5.854;2023-06-19T21:02:32;22.3;66.4
45313;SHT31;68267;51.540;5.854;2023-06-19T21:15:51;22.2;66.8
45313;SHT31;68267;51.540;5.854;2023-06-19T21:29:11;22.1;68.1
45313;SHT31;68267;51.540;5.854;2023-06-19T21:42:31;22.0;67.4
45313;SHT31;68267;51.540;5.854;2023-06-19T21:55:50;22.0;67.3
45313;SHT31;68267;51.540;5.854;2023-06-19T22:09:10;21.9;68.6
45313;SHT31;68267;51.540;5.854;2023-06-19T22:22:30;21.7;68.2
45313;SHT31;68267;51.540;5.854;2023-06-19T22:35:49;21.7;68.0
45313;SHT31;68267;51.540;5.854;2023-06-19T22:49:09;21.8;65.8
45313;SHT31;68267;51.540;5.854;2023-06-19T23:02:29;21.8;65.3
45313;SHT31;68267;51.540;5.854;2023-06-19T23:15:48;21.8;64.8
45313;SHT31;68267;51.540;5.854;2023-06-19T23:29:08;21.8;64.9
45313;SHT31;68267;51.540;5.854;2023-06-19T23:42:28;21.7;65.5
45313;SHT31;68267;51.540;5.854;2023-06-19T23:55:47;21.5;66.1
